createdAt,value
2023-02-01T00:00:20.814Z,12.67
2023-02-01T00:02:49.240Z,14.37
2023-02-01T00:05:16.113Z,22.53
2023-02-01T00:07:42.815Z,14.00
2023-02-01T00:10:10.686Z,10.83
2023-02-01T00:12:37.494Z,9.63
2023-02-01T00:15:05.043Z,11.43
2023-02-01T00:17:31.778Z,10.93
2023-02-01T00:19:59.823Z,12.37
2023-02-01T00:22:26.541Z,14.63
2023-02-01T00:24:53.309Z,13.90
2023-02-01T00:27:19.991Z,9.77
2023-02-01T00:29:46.928Z,11.43
2023-02-01T00:32:14.088Z,11.20
2023-02-01T00:34:40.787Z,19.00
2023-02-01T00:37:09.112Z,22.17
2023-02-01T00:39:35.907Z,16.70
2023-02-01T00:42:02.895Z,19.10
2023-02-01T00:44:29.679Z,16.27
2023-02-01T00:46:56.457Z,13.37
2023-02-01T00:49:23.239Z,19.73
2023-02-01T00:51:50.002Z,23.60
2023-02-01T00:54:18.196Z,12.80
2023-02-01T00:56:44.847Z,13.20
2023-02-01T00:59:12.207Z,15.47
2023-02-01T01:01:39.202Z,15.77
2023-02-01T01:04:06.205Z,22.90
2023-02-01T01:06:34.405Z,19.37
2023-02-01T01:09:03.667Z,21.07
2023-02-01T01:11:35.026Z,18.97
2023-02-01T01:14:01.985Z,12.20
2023-02-01T01:16:30.957Z,20.83
2023-02-01T01:18:58.088Z,17.27
2023-02-01T01:21:25.231Z,18.20
2023-02-01T01:23:52.361Z,20.67
2023-02-01T01:26:21.638Z,19.10
2023-02-01T01:28:50.201Z,13.97
2023-02-01T01:31:18.639Z,24.43
2023-02-01T01:33:48.032Z,19.13
2023-02-01T01:36:14.738Z,17.80
2023-02-01T01:38:42.185Z,14.20
2023-02-01T01:41:12.555Z,19.33
2023-02-01T01:43:56.028Z,18.60
2023-02-01T01:46:25.256Z,15.13
2023-02-01T01:49:00.973Z,16.23
2023-02-01T01:51:30.555Z,14.57
2023-02-01T01:54:02.251Z,32.57
2023-02-01T01:56:30.564Z,14.90
2023-02-01T01:58:59.559Z,16.00
2023-02-01T02:01:26.668Z,18.00
2023-02-01T02:03:54.409Z,17.10
2023-02-01T02:06:29.183Z,14.97
2023-02-01T02:08:55.871Z,12.67
2023-02-01T02:11:22.637Z,15.43
2023-02-01T02:13:52.552Z,18.20
2023-02-01T02:16:33.295Z,17.50
2023-02-01T02:19:18.543Z,27.07
2023-02-01T02:22:03.425Z,14.23
2023-02-01T02:24:57.426Z,11.90
2023-02-01T02:27:37.203Z,14.20
2023-02-01T02:30:49.278Z,17.07
2023-02-01T02:33:39.199Z,19.90
2023-02-01T02:36:11.097Z,24.13
2023-02-01T02:38:45.791Z,16.13
2023-02-01T02:41:16.925Z,17.23
2023-02-01T02:43:53.260Z,15.80
2023-02-01T02:46:25.119Z,19.33
2023-02-01T02:49:01.503Z,17.10
2023-02-01T02:51:33.520Z,21.80
2023-02-01T02:54:04.599Z,15.10
2023-02-01T02:56:31.498Z,19.80
2023-02-01T02:58:59.694Z,24.87
2023-02-01T03:01:26.560Z,14.90
2023-02-01T03:03:55.545Z,16.40
2023-02-01T03:06:24.111Z,17.00
2023-02-01T03:08:50.904Z,18.33
2023-02-01T03:11:17.671Z,16.90
2023-02-01T03:13:50.677Z,12.43
2023-02-01T03:16:21.663Z,13.37
2023-02-01T03:18:54.539Z,20.30
2023-02-01T03:21:27.639Z,21.10
2023-02-01T03:23:55.747Z,16.93
2023-02-01T03:26:24.941Z,26.50
2023-02-01T03:28:56.721Z,18.53
2023-02-01T03:31:24.312Z,17.73
2023-02-01T03:33:51.745Z,21.67
2023-02-01T03:36:26.700Z,19.37
2023-02-01T03:38:59.070Z,12.93
2023-02-01T03:41:31.698Z,20.23
2023-02-01T03:44:07.759Z,19.40
2023-02-01T03:46:39.194Z,22.60
2023-02-01T03:49:08.972Z,16.10
2023-02-01T03:51:37.954Z,23.40
2023-02-01T03:54:07.785Z,16.23
2023-02-01T03:56:38.928Z,15.20
2023-02-01T03:59:05.763Z,18.30
2023-02-01T04:01:33.034Z,22.87
2023-02-01T04:03:59.932Z,8.03
2023-02-01T04:06:26.915Z,17.40
2023-02-01T04:08:55.114Z,17.50
2023-02-01T04:11:21.853Z,12.73
2023-02-01T04:13:48.584Z,17.70
2023-02-01T04:16:15.370Z,13.67
2023-02-01T04:18:42.085Z,19.67
2023-02-01T04:21:08.849Z,17.33
2023-02-01T04:23:35.541Z,23.73
2023-02-01T04:26:05.237Z,18.23
2023-02-01T04:28:32.227Z,10.83
2023-02-01T04:30:58.993Z,32.63
2023-02-01T04:33:25.697Z,17.83
2023-02-01T04:35:52.414Z,26.30
2023-02-01T04:38:19.200Z,14.20
2023-02-01T04:40:48.277Z,16.23
2023-02-01T04:43:16.723Z,18.73
2023-02-01T04:45:47.809Z,18.50
2023-02-01T04:48:14.510Z,14.40
2023-02-01T04:50:41.169Z,20.67
2023-02-01T04:53:07.811Z,15.40
2023-02-01T04:55:34.475Z,10.87
2023-02-01T04:58:01.135Z,18.87
2023-02-01T05:00:29.178Z,16.93
2023-02-01T05:02:55.844Z,19.10
2023-02-01T05:05:22.541Z,7.50
2023-02-01T05:07:49.187Z,14.40
2023-02-01T05:10:16.471Z,26.37
2023-02-01T05:12:44.273Z,17.03
2023-02-01T05:15:11.147Z,24.27
2023-02-01T05:17:39.219Z,12.90
2023-02-01T05:20:07.034Z,14.87
2023-02-01T05:22:33.705Z,13.80
2023-02-01T05:25:00.343Z,15.00
2023-02-01T05:27:27.022Z,20.90
2023-02-01T05:29:53.682Z,15.13
2023-02-01T05:32:22.709Z,23.20
2023-02-01T05:34:51.315Z,15.33
2023-02-01T05:37:17.992Z,14.40
2023-02-01T05:39:44.649Z,21.30
2023-02-01T05:42:11.319Z,17.07
2023-02-01T05:44:38.016Z,11.63
2023-02-01T05:47:05.074Z,22.13
2023-02-01T05:49:31.840Z,17.03
2023-02-01T05:52:00.624Z,15.27
2023-02-01T05:54:27.563Z,14.73
2023-02-01T05:56:54.317Z,13.47
2023-02-01T05:59:20.992Z,13.60
2023-02-01T06:01:47.696Z,18.50
2023-02-01T06:04:14.365Z,10.73
2023-02-01T06:06:41.259Z,23.10
2023-02-01T06:09:09.313Z,19.30
2023-02-01T06:11:36.022Z,20.53
2023-02-01T06:14:02.711Z,10.80
2023-02-01T06:16:29.441Z,12.83
2023-02-01T06:18:56.150Z,20.53
2023-02-01T06:21:22.800Z,19.37
2023-02-01T06:23:49.531Z,14.00
2023-02-01T06:26:17.622Z,13.47
2023-02-01T06:28:44.272Z,24.17
2023-02-01T06:31:11.455Z,15.33
2023-02-01T06:33:38.438Z,10.37
2023-02-01T06:36:07.326Z,17.27
2023-02-01T06:38:34.732Z,19.77
2023-02-01T06:41:01.814Z,11.67
2023-02-01T06:43:29.879Z,13.63
2023-02-01T06:46:01.342Z,8.77
2023-02-01T06:48:28.167Z,14.37
2023-02-01T06:50:54.895Z,11.13
2023-02-01T06:53:21.753Z,9.70
2023-02-01T06:55:54.955Z,15.10
2023-02-01T06:58:21.686Z,18.10
2023-02-01T07:00:49.979Z,15.90
2023-02-01T07:03:16.960Z,15.67
2023-02-01T07:05:43.735Z,16.77
2023-02-01T07:08:10.399Z,15.10
2023-02-01T07:10:37.907Z,15.43
2023-02-01T07:13:04.602Z,12.43
2023-02-01T07:15:31.434Z,17.37
2023-02-01T07:17:59.417Z,11.57
2023-02-01T07:20:26.146Z,14.10
2023-02-01T07:22:56.340Z,22.43
2023-02-01T07:25:23.157Z,9.70
2023-02-01T07:27:49.810Z,15.83
2023-02-01T07:30:17.009Z,12.10
2023-02-01T07:32:43.681Z,11.37
2023-02-01T07:35:11.758Z,15.43
2023-02-01T07:37:38.452Z,16.73
2023-02-01T07:40:06.359Z,10.43
2023-02-01T07:42:33.136Z,10.90
2023-02-01T07:45:07.908Z,9.73
2023-02-01T07:47:41.777Z,13.37
2023-02-01T07:50:09.462Z,10.10
2023-02-01T07:52:37.437Z,16.03
2023-02-01T07:55:04.685Z,13.97
2023-02-01T07:57:31.378Z,7.57
2023-02-01T07:59:58.039Z,10.53
2023-02-01T08:02:24.782Z,14.97
2023-02-01T08:04:51.497Z,9.60
2023-02-01T08:07:18.188Z,12.13
2023-02-01T08:09:46.226Z,11.97
2023-02-01T08:12:12.931Z,6.70
2023-02-01T08:14:39.580Z,10.57
2023-02-01T08:17:06.249Z,9.00
2023-02-01T08:19:32.945Z,15.63
2023-02-01T08:21:59.607Z,7.07
2023-02-01T08:24:26.278Z,16.77
2023-02-01T08:26:54.319Z,5.90
2023-02-01T08:29:21.032Z,7.00
2023-02-01T08:31:47.761Z,11.70
2023-02-01T08:34:14.467Z,7.83
2023-02-01T08:36:41.149Z,7.30
2023-02-01T08:39:07.856Z,10.10
2023-02-01T08:41:34.512Z,6.17
2023-02-01T08:44:02.569Z,8.83
2023-02-01T08:46:29.414Z,6.13
2023-02-01T08:48:56.382Z,10.87
2023-02-01T08:51:24.252Z,10.23
2023-02-01T08:53:51.695Z,12.40
2023-02-01T08:56:20.144Z,10.00
2023-02-01T08:58:46.947Z,5.90
2023-02-01T09:01:16.578Z,11.17
2023-02-01T09:03:43.531Z,9.83
2023-02-01T09:06:12.774Z,4.57
2023-02-01T09:08:40.242Z,9.00
2023-02-01T09:11:09.393Z,7.47
2023-02-01T09:13:36.060Z,6.70
2023-02-01T09:16:03.108Z,6.00
2023-02-01T09:18:31.267Z,9.37
2023-02-01T09:20:57.981Z,10.90
2023-02-01T09:23:24.690Z,10.70
2023-02-01T09:25:51.400Z,8.73
2023-02-01T09:28:18.136Z,12.83
2023-02-01T09:30:44.932Z,9.80
2023-02-01T09:33:12.014Z,7.67
2023-02-01T09:35:40.150Z,9.83
2023-02-01T09:38:06.838Z,8.93
2023-02-01T09:40:35.360Z,5.67
2023-02-01T09:43:14.559Z,7.40
2023-02-01T09:45:48.550Z,7.10
2023-02-01T09:48:17.840Z,3.90
2023-02-01T09:50:51.197Z,7.30
2023-02-01T09:53:25.593Z,7.07
2023-02-01T09:55:55.355Z,6.67
2023-02-01T09:58:28.406Z,4.57
2023-02-01T10:00:57.992Z,7.90
2023-02-01T10:03:27.915Z,5.17
2023-02-01T10:06:25.660Z,5.40
2023-02-01T10:09:13.725Z,4.27
2023-02-01T10:11:51.803Z,6.90
2023-02-01T10:14:45.755Z,5.80
2023-02-01T10:17:26.678Z,7.37
2023-02-01T10:20:05.227Z,7.20
2023-02-01T10:23:03.680Z,7.57
2023-02-01T10:25:32.960Z,10.13
2023-02-01T10:28:02.491Z,9.77
2023-02-01T10:30:35.705Z,12.17
2023-02-01T10:33:15.279Z,12.90
2023-02-01T10:35:42.193Z,9.80
2023-02-01T10:38:21.006Z,7.53
2023-02-01T10:40:48.094Z,7.60
2023-02-01T10:43:14.899Z,5.73
2023-02-01T10:45:42.909Z,9.50
2023-02-01T10:48:09.980Z,10.07
2023-02-01T10:50:40.140Z,10.77
2023-02-01T10:53:12.257Z,10.97
2023-02-01T10:55:41.447Z,14.17
2023-02-01T10:58:18.957Z,10.67
2023-02-01T11:00:49.064Z,13.00
2023-02-01T11:03:35.102Z,14.77
2023-02-01T11:06:03.693Z,15.60
2023-02-01T11:08:31.772Z,7.60
2023-02-01T11:11:00.510Z,18.63
2023-02-01T11:13:31.151Z,15.63
2023-02-01T11:15:58.415Z,13.80
2023-02-01T11:18:28.323Z,11.80
2023-02-01T11:20:55.792Z,8.13
2023-02-01T11:23:24.854Z,16.17
2023-02-01T11:25:55.273Z,8.50
2023-02-01T11:28:25.517Z,12.13
2023-02-01T11:30:56.054Z,16.60
2023-02-01T11:33:27.826Z,9.53
2023-02-01T11:35:54.651Z,14.73
2023-02-01T11:38:26.064Z,14.67
2023-02-01T11:40:54.041Z,8.00
2023-02-01T11:43:25.057Z,12.10
2023-02-01T11:45:56.963Z,14.53
2023-02-01T11:48:27.325Z,13.50
2023-02-01T11:51:06.728Z,12.57
2023-02-01T11:53:46.555Z,16.47
2023-02-01T11:56:23.537Z,11.43
2023-02-01T11:59:13.421Z,9.57
2023-02-01T12:01:59.356Z,11.97
2023-02-01T12:04:51.845Z,18.40
2023-02-01T12:07:23.477Z,12.60
2023-02-01T12:10:05.662Z,10.67
2023-02-01T12:12:45.099Z,14.40
2023-02-01T12:15:27.820Z,14.90
2023-02-01T12:18:09.983Z,10.20
2023-02-01T12:20:58.416Z,15.53
2023-02-01T12:23:39.078Z,19.47
2023-02-01T12:26:27.939Z,12.00
2023-02-01T12:29:13.556Z,15.17
2023-02-01T12:32:07.869Z,9.30
2023-02-01T12:34:54.687Z,13.67
2023-02-01T12:37:34.239Z,11.37
2023-02-01T12:40:20.011Z,11.10
2023-02-01T12:42:54.600Z,11.73
2023-02-01T12:45:32.137Z,11.00
2023-02-01T12:48:04.379Z,14.70
2023-02-01T12:50:36.299Z,9.53
2023-02-01T12:53:09.873Z,10.53
2023-02-01T12:55:39.676Z,12.80
2023-02-01T12:58:13.222Z,13.47
2023-02-01T13:00:45.487Z,9.43
2023-02-01T13:03:24.855Z,9.47
2023-02-01T13:05:56.102Z,9.00
2023-02-01T13:08:27.155Z,12.47
2023-02-01T13:10:59.541Z,8.73
2023-02-01T13:13:33.083Z,7.30
2023-02-01T13:16:07.906Z,10.63
2023-02-01T13:18:39.242Z,7.90
2023-02-01T13:21:11.592Z,12.50
2023-02-01T13:23:40.432Z,8.13
2023-02-01T13:26:07.579Z,13.70
2023-02-01T13:28:42.259Z,13.40
2023-02-01T13:31:47.798Z,14.27
2023-02-01T13:34:44.446Z,10.23
2023-02-01T13:37:25.167Z,16.17
2023-02-01T13:40:17.232Z,12.20
2023-02-01T13:42:49.851Z,12.70
2023-02-01T13:45:18.491Z,9.13
2023-02-01T13:48:00.228Z,13.80
2023-02-01T13:50:30.392Z,7.93
2023-02-01T13:52:59.550Z,11.40
2023-02-01T13:55:31.310Z,14.07
2023-02-01T13:58:18.369Z,8.20
2023-02-01T14:00:45.227Z,13.37
2023-02-01T14:03:18.920Z,11.37
2023-02-01T14:06:03.543Z,10.77
2023-02-01T14:08:42.849Z,9.27
2023-02-01T14:11:37.269Z,11.83
2023-02-01T14:14:43.676Z,12.33
2023-02-01T14:17:40.858Z,9.50
2023-02-01T14:20:44.167Z,9.10
2023-02-01T14:23:17.167Z,7.53
2023-02-01T14:25:45.257Z,11.63
2023-02-01T14:28:19.482Z,6.10
2023-02-01T14:30:48.328Z,6.60
2023-02-01T14:33:21.928Z,8.90
2023-02-01T14:36:03.932Z,9.73
2023-02-01T14:38:33.310Z,3.93
2023-02-01T14:41:17.694Z,8.20
2023-02-01T14:44:11.805Z,7.93
2023-02-01T14:47:04.662Z,7.80
2023-02-01T14:49:33.063Z,2.40
2023-02-01T14:52:00.689Z,3.10
2023-02-01T14:54:29.763Z,3.30
2023-02-01T14:56:57.059Z,2.93
2023-02-01T14:59:26.524Z,5.23
2023-02-01T15:01:57.470Z,1.20
2023-02-01T15:04:27.636Z,5.80
2023-02-01T15:06:56.622Z,3.30
2023-02-01T15:09:29.826Z,6.50
2023-02-01T15:12:02.787Z,1.23
2023-02-01T15:14:31.615Z,2.80
2023-02-01T15:16:58.443Z,1.67
2023-02-01T15:19:27.081Z,4.03
2023-02-01T15:21:56.237Z,0.70
2023-02-01T15:24:25.780Z,1.23
2023-02-01T15:26:56.271Z,3.53
2023-02-01T15:29:24.650Z,1.20
2023-02-01T15:31:53.305Z,1.70
2023-02-01T15:34:21.034Z,2.10
2023-02-01T15:37:01.881Z,5.77
2023-02-01T15:39:29.895Z,1.77
2023-02-01T15:42:00.240Z,6.37
2023-02-01T15:44:38.366Z,1.47
2023-02-01T15:47:16.083Z,1.60
2023-02-01T15:49:46.263Z,2.97
2023-02-01T15:52:23.247Z,1.20
2023-02-01T15:54:53.508Z,3.10
2023-02-01T15:57:25.148Z,2.67
2023-02-01T15:59:54.440Z,2.53
2023-02-01T16:02:29.213Z,6.33
2023-02-01T16:04:55.945Z,4.13
2023-02-01T16:07:27.147Z,2.57
2023-02-01T16:09:56.270Z,3.50
2023-02-01T16:12:31.202Z,3.40
2023-02-01T16:14:58.212Z,3.70
2023-02-01T16:17:25.416Z,7.57
2023-02-01T16:19:52.336Z,3.90
2023-02-01T16:22:19.192Z,3.37
2023-02-01T16:24:45.937Z,3.70
2023-02-01T16:27:12.855Z,5.10
2023-02-01T16:29:42.119Z,2.70
2023-02-01T16:32:17.256Z,4.57
2023-02-01T16:34:44.003Z,9.43
2023-02-01T16:37:13.854Z,6.30
2023-02-01T16:39:40.503Z,4.43
2023-02-01T16:42:12.036Z,5.53
2023-02-01T16:44:40.532Z,6.37
2023-02-01T16:47:12.836Z,8.90
2023-02-01T16:49:41.939Z,8.10
2023-02-01T16:52:14.720Z,7.70
2023-02-01T16:54:41.428Z,5.60
2023-02-01T16:57:12.671Z,12.50
2023-02-01T16:59:40.748Z,7.20
2023-02-01T17:02:11.073Z,9.60
2023-02-01T17:04:38.030Z,8.87
2023-02-01T17:07:04.918Z,6.73
2023-02-01T17:09:31.651Z,6.20
2023-02-01T17:11:58.342Z,4.93
2023-02-01T17:14:25.116Z,3.43
2023-02-01T17:16:59.117Z,8.53
2023-02-01T17:19:25.861Z,9.03
2023-02-01T17:21:54.359Z,8.77
2023-02-01T17:24:22.964Z,10.63
2023-02-01T17:26:50.045Z,9.40
2023-02-01T17:29:16.918Z,7.90
2023-02-01T17:31:46.236Z,9.63
2023-02-01T17:34:15.632Z,6.73
2023-02-01T17:36:42.382Z,8.33
2023-02-01T17:39:09.410Z,5.07
2023-02-01T17:41:36.559Z,6.57
2023-02-01T17:44:03.871Z,9.07
2023-02-01T17:46:31.839Z,10.33
2023-02-01T17:48:58.522Z,17.67
2023-02-01T17:51:28.238Z,7.30
2023-02-01T17:53:55.455Z,6.30
2023-02-01T17:56:23.832Z,10.37
2023-02-01T17:58:50.873Z,7.80
2023-02-01T18:01:20.189Z,9.57
2023-02-01T18:03:47.139Z,10.70
2023-02-01T18:06:15.466Z,8.50
2023-02-01T18:08:44.049Z,7.20
2023-02-01T18:11:13.742Z,5.77
2023-02-01T18:13:40.842Z,4.13
2023-02-01T18:16:20.392Z,5.27
2023-02-01T18:18:47.641Z,5.40
2023-02-01T18:21:15.190Z,4.87
2023-02-01T18:23:46.269Z,3.57
2023-02-01T18:26:14.633Z,3.60
2023-02-01T18:28:41.422Z,4.60
2023-02-01T18:31:16.926Z,3.77
2023-02-01T18:33:43.689Z,4.17
2023-02-01T18:36:12.942Z,6.17
2023-02-01T18:38:39.682Z,4.20
2023-02-01T18:41:11.827Z,5.17
2023-02-01T18:43:38.590Z,2.57
2023-02-01T18:46:05.599Z,1.10
2023-02-01T18:48:32.474Z,7.20
2023-02-01T18:50:59.140Z,2.70
2023-02-01T18:53:25.988Z,1.13
2023-02-01T18:55:55.850Z,3.70
2023-02-01T18:58:25.032Z,1.43
2023-02-01T19:00:53.176Z,7.60
2023-02-01T19:03:20.281Z,5.50
2023-02-01T19:05:47.494Z,4.93
2023-02-01T19:08:14.178Z,2.77
2023-02-01T19:10:42.518Z,3.60
2023-02-01T19:13:11.504Z,6.10
2023-02-01T19:15:39.796Z,4.40
2023-02-01T19:18:08.834Z,3.97
2023-02-01T19:20:37.856Z,4.33
2023-02-01T19:23:04.736Z,4.73
2023-02-01T19:25:31.546Z,13.70
2023-02-01T19:27:58.205Z,12.00
2023-02-01T19:30:25.377Z,7.93
2023-02-01T19:32:53.497Z,7.87
2023-02-01T19:35:22.129Z,7.20
2023-02-01T19:37:49.588Z,4.03
2023-02-01T19:40:18.434Z,7.87
2023-02-01T19:42:45.600Z,6.57
2023-02-01T19:45:15.116Z,8.63
2023-02-01T19:47:42.212Z,5.43
2023-02-01T19:50:15.332Z,4.20
2023-02-01T19:52:42.171Z,5.30
2023-02-01T19:55:09.244Z,7.67
2023-02-01T19:57:35.916Z,2.57
2023-02-01T20:00:02.849Z,4.33
2023-02-01T20:02:28.746Z,6.43
2023-02-01T20:04:55.510Z,6.63
2023-02-01T20:07:23.541Z,3.50
2023-02-01T20:09:50.247Z,4.00
2023-02-01T20:12:17.162Z,4.87
2023-02-01T20:14:43.879Z,2.03
2023-02-01T20:17:13.458Z,4.33
2023-02-01T20:19:40.131Z,5.80
2023-02-01T20:22:06.952Z,3.70
2023-02-01T20:24:34.942Z,5.40
2023-02-01T20:27:02.474Z,8.90
2023-02-01T20:29:29.159Z,3.73
2023-02-01T20:31:55.859Z,2.17
2023-02-01T20:34:22.531Z,6.00
2023-02-01T20:36:49.196Z,7.83
2023-02-01T20:39:15.851Z,4.60
2023-02-01T20:41:43.875Z,8.70
2023-02-01T20:44:10.727Z,8.30
2023-02-01T20:46:37.433Z,9.23
2023-02-01T20:49:04.272Z,6.70
2023-02-01T20:51:30.906Z,2.60
2023-02-01T20:53:57.590Z,8.17
2023-02-01T20:56:24.366Z,10.67
2023-02-01T20:58:52.338Z,3.93
2023-02-01T21:01:19.041Z,10.30
2023-02-01T21:03:45.716Z,3.70
2023-02-01T21:06:13.272Z,5.93
2023-02-01T21:08:40.344Z,13.63
2023-02-01T21:11:09.289Z,8.60
2023-02-01T21:13:38.332Z,11.60
2023-02-01T21:16:09.379Z,11.43
2023-02-01T21:18:36.211Z,6.47
2023-02-01T21:21:04.765Z,7.53
2023-02-01T21:23:32.914Z,11.33
2023-02-01T21:26:01.701Z,10.13
2023-02-01T21:28:28.488Z,11.70
2023-02-01T21:30:55.209Z,9.17
2023-02-01T21:33:23.462Z,12.30
2023-02-01T21:35:51.021Z,15.93
2023-02-01T21:38:17.695Z,12.17
2023-02-01T21:40:44.340Z,8.20
2023-02-01T21:43:11.125Z,8.03
2023-02-01T21:45:39.836Z,7.60
2023-02-01T21:48:10.251Z,11.90
2023-02-01T21:50:38.314Z,10.83
2023-02-01T21:53:04.956Z,9.93
2023-02-01T21:55:31.575Z,13.20
2023-02-01T21:57:58.219Z,12.50
2023-02-01T22:00:25.006Z,15.17
2023-02-01T22:02:51.672Z,13.00
2023-02-01T22:05:18.321Z,8.07
2023-02-01T22:07:46.303Z,13.63
2023-02-01T22:10:12.963Z,14.80
2023-02-01T22:12:39.954Z,11.83
2023-02-01T22:15:07.259Z,14.20
2023-02-01T22:17:33.901Z,14.10
2023-02-01T22:20:00.568Z,16.03
2023-02-01T22:22:27.210Z,10.30
2023-02-01T22:24:55.175Z,11.50
2023-02-01T22:27:21.808Z,14.10
2023-02-01T22:29:59.855Z,16.60
2023-02-01T22:32:26.833Z,23.43
2023-02-01T22:34:53.490Z,17.70
2023-02-01T22:37:20.128Z,22.87
2023-02-01T22:39:46.776Z,14.87
2023-02-01T22:42:14.750Z,12.43
2023-02-01T22:44:41.495Z,19.80
2023-02-01T22:47:08.138Z,9.97
2023-02-01T22:49:34.780Z,16.43
2023-02-01T22:52:01.508Z,13.53
2023-02-01T22:54:28.183Z,9.77
2023-02-01T22:56:54.884Z,9.87
2023-02-01T22:59:22.848Z,13.00
2023-02-01T23:01:49.527Z,13.50
2023-02-01T23:04:16.196Z,14.93
2023-02-01T23:06:43.091Z,15.63
2023-02-01T23:09:14.732Z,15.63
2023-02-01T23:11:41.832Z,16.13
2023-02-01T23:14:08.864Z,14.07
2023-02-01T23:16:37.484Z,12.77
2023-02-01T23:19:04.213Z,14.90
2023-02-01T23:21:31.184Z,19.23
2023-02-01T23:23:59.719Z,12.97
2023-02-01T23:26:28.321Z,15.43
2023-02-01T23:28:56.090Z,11.97
2023-02-01T23:31:25.043Z,15.80
2023-02-01T23:33:53.319Z,14.90
2023-02-01T23:36:20.291Z,12.93
2023-02-01T23:38:47.338Z,18.43
2023-02-01T23:41:15.965Z,16.20
2023-02-01T23:43:42.848Z,13.67
2023-02-01T23:46:10.352Z,13.63
2023-02-01T23:48:37.193Z,17.13
2023-02-01T23:51:05.968Z,14.33
2023-02-01T23:53:32.710Z,13.60
2023-02-01T23:55:59.386Z,14.67
2023-02-01T23:58:26.046Z,20.43
